sensor_id;sensor_type;location;lat;lon;timestamp;temperature;humidity
5286;DHT22;2665;53.112;7.358;2023-02-28T09:37:46;9.40;1.00
5286;DHT22;2665;53.112;7.358;2023-02-28T09:40:13;9.50;1.00
5286;DHT22;2665;53.112;7.358;2023-02-28T09:47:52;11.30;99.90
5286;DHT22;2665;53.112;7.358;2023-02-28T09:52:59;12.00;1.00
5286;DHT22;2665;53.112;7.358;2023-02-28T09:55:51;11.60;99.90
5286;DHT22;2665;53.112;7.358;2023-02-28T09:58:32;10.70;99.90
5286;DHT22;2665;53.112;7.358;2023-02-28T10:04:16;9.40;97.00
5286;DHT22;2665;53.112;7.358;2023-02-28T10:06:49;9.00;99.90
5286;DHT22;2665;53.112;7.358;2023-02-28T10:09:25;8.60;99.90
5286;DHT22;2665;53.112;7.358;2023-02-28T10:11:55;8.20;99.90
5286;DHT22;2665;53.112;7.358;2023-02-28T10:14:24;8.00;99.90
5286;DHT22;2665;53.112;7.358;2023-02-28T10:16:56;7.70;99.90
5286;DHT22;2665;53.112;7.358;2023-02-28T10:19:34;7.30;97.60
5286;DHT22;2665;53.112;7.358;2023-02-28T10:22:12;7.00;97.70
5286;DHT22;2665;53.112;7.358;2023-02-28T10:24:42;6.70;98.60
5286;DHT22;2665;53.112;7.358;2023-02-28T10:27:18;6.60;99.90
5286;DHT22;2665;53.112;7.358;2023-02-28T10:29:53;6.40;99.50
5286;DHT22;2665;53.112;7.358;2023-02-28T10:32:40;6.30;99.90
5286;DHT22;2665;53.112;7.358;2023-02-28T10:35:17;6.40;99.90
5286;DHT22;2665;53.112;7.358;2023-02-28T10:37:46;6.60;99.90
5286;DHT22;2665;53.112;7.358;2023-02-28T10:43:05;6.80;99.90
5286;DHT22;2665;53.112;7.358;2023-02-28T10:45:35;6.70;99.90
5286;DHT22;2665;53.112;7.358;2023-02-28T10:50:42;6.60;99.90
5286;DHT22;2665;53.112;7.358;2023-02-28T11:04:35;7.10;99.90
5286;DHT22;2665;53.112;7.358;2023-02-28T11:07:19;7.50;99.90
5286;DHT22;2665;53.112;7.358;2023-02-28T11:09:48;8.00;99.90
5286;DHT22;2665;53.112;7.358;2023-02-28T11:14:52;8.70;99.90
5286;DHT22;2665;53.112;7.358;2023-02-28T11:17:27;8.70;99.90
5286;DHT22;2665;53.112;7.358;2023-02-28T11:19:57;9.10;99.90
5286;DHT22;2665;53.112;7.358;2023-02-28T11:22:27;10.10;99.90
5286;DHT22;2665;53.112;7.358;2023-02-28T11:24:59;11.50;99.90
5286;DHT22;2665;53.112;7.358;2023-02-28T11:29:57;13.90;99.90
5286;DHT22;2665;53.112;7.358;2023-02-28T11:32:25;13.90;97.60
5286;DHT22;2665;53.112;7.358;2023-02-28T11:37:35;14.10;83.50
5286;DHT22;2665;53.112;7.358;2023-02-28T11:40:01;12.70;68.90
5286;DHT22;2665;53.112;7.358;2023-02-28T11:42:55;11.70;62.40
5286;DHT22;2665;53.112;7.358;2023-02-28T11:48:44;12.70;68.50
5286;DHT22;2665;53.112;7.358;2023-02-28T11:56:46;12.00;55.70
5286;DHT22;2665;53.112;7.358;2023-02-28T11:59:51;12.20;60.30
5286;DHT22;2665;53.112;7.358;2023-02-28T12:02:24;14.50;58.40
5286;DHT22;2665;53.112;7.358;2023-02-28T12:05:11;15.70;81.40
5286;DHT22;2665;53.112;7.358;2023-02-28T12:20:05;18.90;57.40
5286;DHT22;2665;53.112;7.358;2023-02-28T12:27:34;17.90;50.70
5286;DHT22;2665;53.112;7.358;2023-02-28T12:32:42;17.50;49.90
5286;DHT22;2665;53.112;7.358;2023-02-28T12:37:41;17.70;47.50
5286;DHT22;2665;53.112;7.358;2023-02-28T12:40:21;18.20;50.20
5286;DHT22;2665;53.112;7.358;2023-02-28T12:43:07;18.50;50.70
5286;DHT22;2665;53.112;7.358;2023-02-28T12:45:50;18.90;52.10
5286;DHT22;2665;53.112;7.358;2023-02-28T12:48:26;19.20;50.60
5286;DHT22;2665;53.112;7.358;2023-02-28T12:50:52;19.10;50.40
5286;DHT22;2665;53.112;7.358;2023-02-28T12:58:55;19.20;46.70
5286;DHT22;2665;53.112;7.358;2023-02-28T13:10:04;20.50;51.50
5286;DHT22;2665;53.112;7.358;2023-02-28T13:12:33;20.80;51.00
5286;DHT22;2665;53.112;7.358;2023-02-28T13:15:21;20.60;49.30
5286;DHT22;2665;53.112;7.358;2023-02-28T13:17:51;21.00;49.90
5286;DHT22;2665;53.112;7.358;2023-02-28T13:20:20;21.10;50.40
5286;DHT22;2665;53.112;7.358;2023-02-28T13:22:48;20.90;45.10
5286;DHT22;2665;53.112;7.358;2023-02-28T13:27:59;20.40;58.20
5286;DHT22;2665;53.112;7.358;2023-02-28T13:33:28;20.10;42.20
5286;DHT22;2665;53.112;7.358;2023-02-28T13:38:51;19.50;38.60
5286;DHT22;2665;53.112;7.358;2023-02-28T13:44:03;19.80;43.10
5286;DHT22;2665;53.112;7.358;2023-02-28T13:46:29;20.00;44.20
5286;DHT22;2665;53.112;7.358;2023-02-28T13:48:55;20.40;45.90
5286;DHT22;2665;53.112;7.358;2023-02-28T13:51:44;20.80;47.70
5286;DHT22;2665;53.112;7.358;2023-02-28T14:00:01;20.90;53.00
5286;DHT22;2665;53.112;7.358;2023-02-28T14:02:34;21.10;46.30
5286;DHT22;2665;53.112;7.358;2023-02-28T14:05:22;20.80;45.10
5286;DHT22;2665;53.112;7.358;2023-02-28T14:07:54;20.30;40.60
5286;DHT22;2665;53.112;7.358;2023-02-28T14:10:50;19.90;41.30
5286;DHT22;2665;53.112;7.358;2023-02-28T14:13:41;19.80;42.30
5286;DHT22;2665;53.112;7.358;2023-02-28T14:16:14;19.60;41.40
5286;DHT22;2665;53.112;7.358;2023-02-28T14:18:47;19.60;61.10
5286;DHT22;2665;53.112;7.358;2023-02-28T14:21:21;19.80;44.90
5286;DHT22;2665;53.112;7.358;2023-02-28T14:27:00;20.10;44.60
5286;DHT22;2665;53.112;7.358;2023-02-28T14:38:18;19.30;46.10
5286;DHT22;2665;53.112;7.358;2023-02-28T14:40:48;19.30;45.20
5286;DHT22;2665;53.112;7.358;2023-02-28T14:43:24;19.20;44.60
5286;DHT22;2665;53.112;7.358;2023-02-28T14:45:52;18.70;44.20
5286;DHT22;2665;53.112;7.358;2023-02-28T15:08:31;18.10;48.80
5286;DHT22;2665;53.112;7.358;2023-02-28T15:16:20;17.10;45.60
5286;DHT22;2665;53.112;7.358;2023-02-28T15:21:14;16.40;43.80
5286;DHT22;2665;53.112;7.358;2023-02-28T15:23:43;16.40;45.50
5286;DHT22;2665;53.112;7.358;2023-02-28T15:26:15;16.40;46.40
5286;DHT22;2665;53.112;7.358;2023-02-28T15:28:43;16.40;46.20
5286;DHT22;2665;53.112;7.358;2023-02-28T15:31:29;16.00;45.40
5286;DHT22;2665;53.112;7.358;2023-02-28T15:33:57;16.00;46.60
5286;DHT22;2665;53.112;7.358;2023-02-28T15:36:29;16.00;47.60
5286;DHT22;2665;53.112;7.358;2023-02-28T15:38:57;16.00;48.60
5286;DHT22;2665;53.112;7.358;2023-02-28T15:41:26;16.10;48.50
5286;DHT22;2665;53.112;7.358;2023-02-28T15:44:25;16.00;49.20
5286;DHT22;2665;53.112;7.358;2023-02-28T15:47:02;15.90;49.60
5286;DHT22;2665;53.112;7.358;2023-02-28T15:49:30;15.90;50.00
5286;DHT22;2665;53.112;7.358;2023-02-28T15:51:59;16.00;51.20
5286;DHT22;2665;53.112;7.358;2023-02-28T15:54:37;15.90;50.90
5286;DHT22;2665;53.112;7.358;2023-02-28T15:57:06;15.90;51.70
5286;DHT22;2665;53.112;7.358;2023-02-28T15:59:35;15.80;51.40
5286;DHT22;2665;53.112;7.358;2023-02-28T16:04:36;15.50;51.70
5286;DHT22;2665;53.112;7.358;2023-02-28T16:07:06;15.30;51.80
5286;DHT22;2665;53.112;7.358;2023-02-28T16:09:37;15.10;51.10
5286;DHT22;2665;53.112;7.358;2023-02-28T16:12:03;14.80;50.90
5286;DHT22;2665;53.112;7.358;2023-02-28T16:14:31;14.60;50.80
5286;DHT22;2665;53.112;7.358;2023-02-28T16:17:03;14.50;50.90
5286;DHT22;2665;53.112;7.358;2023-02-28T16:19:29;14.50;52.50
5286;DHT22;2665;53.112;7.358;2023-02-28T16:21:54;14.50;53.80
5286;DHT22;2665;53.112;7.358;2023-02-28T16:24:20;14.40;53.40
5286;DHT22;2665;53.112;7.358;2023-02-28T16:26:48;14.10;52.70
5286;DHT22;2665;53.112;7.358;2023-02-28T16:29:38;13.80;51.70
5286;DHT22;2665;53.112;7.358;2023-02-28T16:32:05;13.60;52.00
5286;DHT22;2665;53.112;7.358;2023-02-28T16:34:31;13.40;52.30
5286;DHT22;2665;53.112;7.358;2023-02-28T16:36:57;13.00;51.60
5286;DHT22;2665;53.112;7.358;2023-02-28T16:39:23;12.60;49.90
5286;DHT22;2665;53.112;7.358;2023-02-28T16:41:50;12.00;50.00
5286;DHT22;2665;53.112;7.358;2023-02-28T16:56:34;9.10;36.00
5286;DHT22;2665;53.112;7.358;2023-02-28T16:59:01;8.90;50.80
5286;DHT22;2665;53.112;7.358;2023-02-28T17:01:27;8.60;50.20
5286;DHT22;2665;53.112;7.358;2023-02-28T17:03:54;8.40;52.00
5286;DHT22;2665;53.112;7.358;2023-02-28T17:06:22;8.20;52.70
5286;DHT22;2665;53.112;7.358;2023-02-28T17:08:49;7.90;54.60
5286;DHT22;2665;53.112;7.358;2023-02-28T17:11:15;7.70;74.80
5286;DHT22;2665;53.112;7.358;2023-02-28T17:13:41;7.50;56.70
5286;DHT22;2665;53.112;7.358;2023-02-28T17:16:23;7.30;58.50
5286;DHT22;2665;53.112;7.358;2023-02-28T17:18:50;7.20;59.50
5286;DHT22;2665;53.112;7.358;2023-02-28T17:21:17;7.00;59.90
5286;DHT22;2665;53.112;7.358;2023-02-28T17:23:43;6.80;61.60
5286;DHT22;2665;53.112;7.358;2023-02-28T17:26:14;6.60;62.70
5286;DHT22;2665;53.112;7.358;2023-02-28T17:28:40;6.50;65.80
5286;DHT22;2665;53.112;7.358;2023-02-28T17:31:07;6.30;65.20
5286;DHT22;2665;53.112;7.358;2023-02-28T17:33:32;6.10;65.60
5286;DHT22;2665;53.112;7.358;2023-02-28T17:35:58;6.00;67.20
5286;DHT22;2665;53.112;7.358;2023-02-28T17:38:23;5.90;68.20
